sensor_id;sensor_type;location;lat;lon;timestamp;P1;durP1;ratioP1;P2;durP2;ratioP2
51048;SDS011;37084;55.228;36.450;2024-03-06T00:00:26;4.47;;;3.45;;
51048;SDS011;37084;55.228;36.450;2024-03-06T00:03:27;4.97;;;2.90;;
51048;SDS011;37084;55.228;36.450;2024-03-06T00:06:29;4.72;;;3.03;;
51048;SDS011;37084;55.228;36.450;2024-03-06T00:09:31;4.97;;;3.15;;
51048;SDS011;37084;55.228;36.450;2024-03-06T00:12:33;8.18;;;3.67;;
51048;SDS011;37084;55.228;36.450;2024-03-06T00:15:34;6.20;;;3.95;;
51048;SDS011;37084;55.228;36.450;2024-03-06T00:18:35;5.85;;;3.25;;
51048;SDS011;37084;55.228;36.450;2024-03-06T00:21:37;5.28;;;3.55;;
51048;SDS011;37084;55.228;36.450;2024-03-06T00:24:38;5.15;;;3.28;;
51048;SDS011;37084;55.228;36.450;2024-03-06T00:27:40;5.78;;;3.10;;
51048;SDS011;37084;55.228;36.450;2024-03-06T00:30:41;5.85;;;3.22;;
51048;SDS011;37084;55.228;36.450;2024-03-06T00:33:43;4.80;;;3.40;;
51048;SDS011;37084;55.228;36.450;2024-03-06T00:36:44;6.07;;;3.60;;
51048;SDS011;37084;55.228;36.450;2024-03-06T00:39:46;4.63;;;3.28;;
51048;SDS011;37084;55.228;36.450;2024-03-06T00:42:47;5.85;;;2.95;;
51048;SDS011;37084;55.228;36.450;2024-03-06T00:45:49;4.38;;;3.30;;
51048;SDS011;37084;55.228;36.450;2024-03-06T00:48:50;4.45;;;2.95;;
51048;SDS011;37084;55.228;36.450;2024-03-06T00:51:52;4.93;;;3.03;;
51048;SDS011;37084;55.228;36.450;2024-03-06T00:54:53;4.75;;;3.45;;
51048;SDS011;37084;55.228;36.450;2024-03-06T00:57:55;5.32;;;3.35;;
51048;SDS011;37084;55.228;36.450;2024-03-06T01:00:56;4.68;;;3.00;;
51048;SDS011;37084;55.228;36.450;2024-03-06T01:03:59;4.18;;;2.75;;
51048;SDS011;37084;55.228;36.450;2024-03-06T01:07:00;6.35;;;3.38;;
51048;SDS011;37084;55.228;36.450;2024-03-06T01:10:02;4.40;;;2.83;;
51048;SDS011;37084;55.228;36.450;2024-03-06T01:13:26;4.22;;;3.00;;
51048;SDS011;37084;55.228;36.450;2024-03-06T01:16:27;5.78;;;3.60;;
51048;SDS011;37084;55.228;36.450;2024-03-06T01:19:29;4.82;;;3.13;;
51048;SDS011;37084;55.228;36.450;2024-03-06T01:22:30;3.35;;;2.65;;
51048;SDS011;37084;55.228;36.450;2024-03-06T01:25:31;4.63;;;2.85;;
51048;SDS011;37084;55.228;36.450;2024-03-06T01:28:33;4.30;;;2.97;;
51048;SDS011;37084;55.228;36.450;2024-03-06T01:31:34;3.53;;;2.33;;
51048;SDS011;37084;55.228;36.450;2024-03-06T01:34:36;5.90;;;2.58;;
51048;SDS011;37084;55.228;36.450;2024-03-06T01:37:38;3.88;;;2.63;;
51048;SDS011;37084;55.228;36.450;2024-03-06T01:40:42;5.13;;;2.53;;
51048;SDS011;37084;55.228;36.450;2024-03-06T01:43:45;3.80;;;2.42;;
51048;SDS011;37084;55.228;36.450;2024-03-06T01:46:47;5.00;;;2.75;;
51048;SDS011;37084;55.228;36.450;2024-03-06T01:49:49;4.03;;;2.50;;
51048;SDS011;37084;55.228;36.450;2024-03-06T01:52:51;2.55;;;1.77;;
51048;SDS011;37084;55.228;36.450;2024-03-06T01:55:53;5.30;;;2.20;;
51048;SDS011;37084;55.228;36.450;2024-03-06T01:58:54;3.17;;;2.30;;
51048;SDS011;37084;55.228;36.450;2024-03-06T02:01:56;3.38;;;2.17;;
51048;SDS011;37084;55.228;36.450;2024-03-06T02:04:58;3.55;;;2.38;;
51048;SDS011;37084;55.228;36.450;2024-03-06T02:08:01;4.43;;;2.75;;
51048;SDS011;37084;55.228;36.450;2024-03-06T02:11:03;4.35;;;2.00;;
51048;SDS011;37084;55.228;36.450;2024-03-06T02:14:05;3.13;;;1.67;;
51048;SDS011;37084;55.228;36.450;2024-03-06T02:17:12;3.40;;;1.63;;
51048;SDS011;37084;55.228;36.450;2024-03-06T02:20:13;3.92;;;2.00;;
51048;SDS011;37084;55.228;36.450;2024-03-06T02:23:16;3.85;;;1.90;;
51048;SDS011;37084;55.228;36.450;2024-03-06T02:29:24;3.05;;;1.90;;
51048;SDS011;37084;55.228;36.450;2024-03-06T02:32:25;3.28;;;1.67;;
51048;SDS011;37084;55.228;36.450;2024-03-06T02:35:26;3.58;;;1.95;;
51048;SDS011;37084;55.228;36.450;2024-03-06T02:38:28;4.47;;;2.10;;
51048;SDS011;37084;55.228;36.450;2024-03-06T02:41:29;3.28;;;2.90;;
51048;SDS011;37084;55.228;36.450;2024-03-06T02:44:31;3.35;;;2.53;;
51048;SDS011;37084;55.228;36.450;2024-03-06T02:47:32;4.88;;;1.58;;
51048;SDS011;37084;55.228;36.450;2024-03-06T02:50:33;2.58;;;1.50;;
51048;SDS011;37084;55.228;36.450;2024-03-06T02:53:35;2.70;;;1.42;;
51048;SDS011;37084;55.228;36.450;2024-03-06T02:56:36;2.92;;;1.50;;
51048;SDS011;37084;55.228;36.450;2024-03-06T02:59:39;4.13;;;1.52;;
51048;SDS011;37084;55.228;36.450;2024-03-06T03:02:41;2.70;;;1.35;;
51048;SDS011;37084;55.228;36.450;2024-03-06T03:05:44;3.72;;;1.20;;
51048;SDS011;37084;55.228;36.450;2024-03-06T03:08:45;2.40;;;1.42;;
51048;SDS011;37084;55.228;36.450;2024-03-06T03:11:48;3.63;;;1.48;;
51048;SDS011;37084;55.228;36.450;2024-03-06T03:14:49;2.33;;;1.48;;
51048;SDS011;37084;55.228;36.450;2024-03-06T03:17:50;2.90;;;1.88;;
51048;SDS011;37084;55.228;36.450;2024-03-06T03:20:52;2.35;;;1.95;;
51048;SDS011;37084;55.228;36.450;2024-03-06T03:23:53;4.03;;;1.85;;
51048;SDS011;37084;55.228;36.450;2024-03-06T03:26:54;2.38;;;1.45;;
51048;SDS011;37084;55.228;36.450;2024-03-06T03:29:56;4.53;;;1.52;;
51048;SDS011;37084;55.228;36.450;2024-03-06T03:32:58;2.70;;;1.15;;
51048;SDS011;37084;55.228;36.450;2024-03-06T03:35:59;3.78;;;1.63;;
51048;SDS011;37084;55.228;36.450;2024-03-06T03:39:01;2.20;;;1.55;;
51048;SDS011;37084;55.228;36.450;2024-03-06T03:42:04;3.00;;;1.48;;
51048;SDS011;37084;55.228;36.450;2024-03-06T03:45:07;4.35;;;1.63;;
51048;SDS011;37084;55.228;36.450;2024-03-06T03:48:09;4.95;;;1.45;;
51048;SDS011;37084;55.228;36.450;2024-03-06T03:51:10;4.72;;;1.50;;
51048;SDS011;37084;55.228;36.450;2024-03-06T03:54:13;2.15;;;1.50;;
51048;SDS011;37084;55.228;36.450;2024-03-06T03:57:14;2.75;;;1.42;;
51048;SDS011;37084;55.228;36.450;2024-03-06T04:00:17;3.65;;;1.42;;
51048;SDS011;37084;55.228;36.450;2024-03-06T04:03:19;3.13;;;1.88;;
51048;SDS011;37084;55.228;36.450;2024-03-06T04:06:21;2.15;;;1.60;;
51048;SDS011;37084;55.228;36.450;2024-03-06T04:09:22;6.90;;;1.58;;
51048;SDS011;37084;55.228;36.450;2024-03-06T04:12:24;2.25;;;1.33;;
51048;SDS011;37084;55.228;36.450;2024-03-06T04:15:26;3.85;;;1.70;;
51048;SDS011;37084;55.228;36.450;2024-03-06T04:18:28;3.67;;;1.55;;
51048;SDS011;37084;55.228;36.450;2024-03-06T04:21:30;4.00;;;1.95;;
51048;SDS011;37084;55.228;36.450;2024-03-06T04:24:31;3.13;;;1.48;;
51048;SDS011;37084;55.228;36.450;2024-03-06T04:27:33;3.00;;;1.27;;
51048;SDS011;37084;55.228;36.450;2024-03-06T04:30:34;3.75;;;1.48;;
51048;SDS011;37084;55.228;36.450;2024-03-06T04:33:36;3.40;;;1.45;;
51048;SDS011;37084;55.228;36.450;2024-03-06T04:36:37;2.28;;;1.48;;
51048;SDS011;37084;55.228;36.450;2024-03-06T04:39:39;2.17;;;1.55;;
51048;SDS011;37084;55.228;36.450;2024-03-06T04:42:41;3.25;;;1.65;;
51048;SDS011;37084;55.228;36.450;2024-03-06T04:45:42;3.45;;;1.45;;
51048;SDS011;37084;55.228;36.450;2024-03-06T04:48:44;4.22;;;1.60;;
51048;SDS011;37084;55.228;36.450;2024-03-06T04:51:47;3.33;;;1.85;;
51048;SDS011;37084;55.228;36.450;2024-03-06T04:54:49;2.30;;;1.05;;
51048;SDS011;37084;55.228;36.450;2024-03-06T04:57:51;4.70;;;1.85;;
51048;SDS011;37084;55.228;36.450;2024-03-06T05:00:56;3.65;;;1.75;;
51048;SDS011;37084;55.228;36.450;2024-03-06T05:03:58;2.53;;;1.83;;
51048;SDS011;37084;55.228;36.450;2024-03-06T05:06:59;3.67;;;1.50;;
51048;SDS011;37084;55.228;36.450;2024-03-06T05:10:01;3.30;;;1.17;;
51048;SDS011;37084;55.228;36.450;2024-03-06T05:13:04;4.10;;;2.25;;
51048;SDS011;37084;55.228;36.450;2024-03-06T05:16:06;2.47;;;1.20;;
51048;SDS011;37084;55.228;36.450;2024-03-06T05:19:10;4.82;;;1.88;;
51048;SDS011;37084;55.228;36.450;2024-03-06T05:22:11;2.35;;;1.80;;
51048;SDS011;37084;55.228;36.450;2024-03-06T05:25:14;1.85;;;1.75;;
51048;SDS011;37084;55.228;36.450;2024-03-06T05:28:15;1.70;;;1.38;;
51048;SDS011;37084;55.228;36.450;2024-03-06T05:31:17;4.45;;;1.77;;
51048;SDS011;37084;55.228;36.450;2024-03-06T05:34:19;2.78;;;1.85;;
51048;SDS011;37084;55.228;36.450;2024-03-06T05:37:21;2.85;;;1.42;;
51048;SDS011;37084;55.228;36.450;2024-03-06T05:40:22;4.90;;;2.08;;
51048;SDS011;37084;55.228;36.450;2024-03-06T05:43:24;3.97;;;2.40;;
51048;SDS011;37084;55.228;36.450;2024-03-06T05:46:26;3.60;;;1.92;;
51048;SDS011;37084;55.228;36.450;2024-03-06T05:49:27;2.88;;;1.67;;
51048;SDS011;37084;55.228;36.450;2024-03-06T05:52:33;5.45;;;1.90;;
51048;SDS011;37084;55.228;36.450;2024-03-06T05:55:37;2.53;;;1.40;;
51048;SDS011;37084;55.228;36.450;2024-03-06T05:58:38;4.80;;;2.30;;
51048;SDS011;37084;55.228;36.450;2024-03-06T06:01:39;4.30;;;1.85;;
51048;SDS011;37084;55.228;36.450;2024-03-06T06:04:42;5.03;;;1.90;;
51048;SDS011;37084;55.228;36.450;2024-03-06T06:07:43;4.68;;;1.83;;
51048;SDS011;37084;55.228;36.450;2024-03-06T06:10:44;4.40;;;2.35;;
51048;SDS011;37084;55.228;36.450;2024-03-06T06:13:46;2.28;;;1.40;;
51048;SDS011;37084;55.228;36.450;2024-03-06T06:16:47;4.65;;;2.15;;
51048;SDS011;37084;55.228;36.450;2024-03-06T06:19:48;2.60;;;1.80;;
51048;SDS011;37084;55.228;36.450;2024-03-06T06:22:50;2.90;;;1.88;;
51048;SDS011;37084;55.228;36.450;2024-03-06T06:25:52;3.00;;;1.65;;
51048;SDS011;37084;55.228;36.450;2024-03-06T06:28:53;3.58;;;1.95;;
51048;SDS011;37084;55.228;36.450;2024-03-06T06:31:54;2.70;;;1.42;;
51048;SDS011;37084;55.228;36.450;2024-03-06T06:34:58;2.55;;;1.70;;
51048;SDS011;37084;55.228;36.450;2024-03-06T06:38:00;2.88;;;1.92;;
51048;SDS011;37084;55.228;36.450;2024-03-06T06:41:01;2.63;;;1.75;;
51048;SDS011;37084;55.228;36.450;2024-03-06T06:44:03;3.17;;;1.90;;
51048;SDS011;37084;55.228;36.450;2024-03-06T06:47:05;3.45;;;2.47;;
51048;SDS011;37084;55.228;36.450;2024-03-06T06:50:08;2.85;;;1.42;;
51048;SDS011;37084;55.228;36.450;2024-03-06T06:53:10;3.30;;;1.75;;
51048;SDS011;37084;55.228;36.450;2024-03-06T06:56:12;3.33;;;2.25;;
51048;SDS011;37084;55.228;36.450;2024-03-06T06:59:14;2.22;;;1.58;;
51048;SDS011;37084;55.228;36.450;2024-03-06T07:02:15;4.13;;;2.17;;
51048;SDS011;37084;55.228;36.450;2024-03-06T07:05:17;2.60;;;1.65;;
51048;SDS011;37084;55.228;36.450;2024-03-06T07:08:18;3.65;;;1.40;;
51048;SDS011;37084;55.228;36.450;2024-03-06T07:11:20;1.65;;;1.42;;
51048;SDS011;37084;55.228;36.450;2024-03-06T07:14:22;4.28;;;2.55;;
51048;SDS011;37084;55.228;36.450;2024-03-06T07:17:23;3.13;;;1.90;;
51048;SDS011;37084;55.228;36.450;2024-03-06T07:20:25;2.72;;;1.70;;
51048;SDS011;37084;55.228;36.450;2024-03-06T07:23:26;2.22;;;1.50;;
51048;SDS011;37084;55.228;36.450;2024-03-06T07:26:27;2.53;;;1.98;;
51048;SDS011;37084;55.228;36.450;2024-03-06T07:29:30;1.73;;;1.50;;
51048;SDS011;37084;55.228;36.450;2024-03-06T07:32:32;2.83;;;2.58;;
51048;SDS011;37084;55.228;36.450;2024-03-06T07:35:33;3.03;;;1.80;;
51048;SDS011;37084;55.228;36.450;2024-03-06T07:38:36;4.05;;;2.08;;
51048;SDS011;37084;55.228;36.450;2024-03-06T07:41:38;3.33;;;2.08;;
51048;SDS011;37084;55.228;36.450;2024-03-06T07:44:39;3.35;;;1.60;;
51048;SDS011;37084;55.228;36.450;2024-03-06T07:47:40;2.95;;;1.85;;
51048;SDS011;37084;55.228;36.450;2024-03-06T07:50:42;3.78;;;2.28;;
51048;SDS011;37084;55.228;36.450;2024-03-06T07:53:43;4.43;;;1.90;;
51048;SDS011;37084;55.228;36.450;2024-03-06T07:56:45;2.25;;;2.13;;
51048;SDS011;37084;55.228;36.450;2024-03-06T07:59:46;2.47;;;1.95;;
51048;SDS011;37084;55.228;36.450;2024-03-06T08:02:47;2.38;;;2.05;;
51048;SDS011;37084;55.228;36.450;2024-03-06T08:05:51;2.40;;;1.27;;
51048;SDS011;37084;55.228;36.450;2024-03-06T08:08:55;4.07;;;1.98;;
51048;SDS011;37084;55.228;36.450;2024-03-06T08:11:57;2.17;;;1.77;;
51048;SDS011;37084;55.228;36.450;2024-03-06T08:14:58;3.53;;;1.90;;
51048;SDS011;37084;55.228;36.450;2024-03-06T08:18:00;3.20;;;1.90;;
51048;SDS011;37084;55.228;36.450;2024-03-06T08:21:01;2.38;;;1.67;;
51048;SDS011;37084;55.228;36.450;2024-03-06T08:24:05;2.70;;;1.55;;
51048;SDS011;37084;55.228;36.450;2024-03-06T08:27:07;2.05;;;1.15;;
51048;SDS011;37084;55.228;36.450;2024-03-06T08:30:09;3.67;;;1.63;;
51048;SDS011;37084;55.228;36.450;2024-03-06T08:33:11;2.90;;;1.25;;
51048;SDS011;37084;55.228;36.450;2024-03-06T08:36:13;2.55;;;1.20;;
51048;SDS011;37084;55.228;36.450;2024-03-06T08:39:14;2.22;;;1.25;;
51048;SDS011;37084;55.228;36.450;2024-03-06T08:42:17;2.05;;;1.20;;
51048;SDS011;37084;55.228;36.450;2024-03-06T08:45:19;3.10;;;1.30;;
51048;SDS011;37084;55.228;36.450;2024-03-06T08:48:20;3.33;;;1.58;;
51048;SDS011;37084;55.228;36.450;2024-03-06T08:51:22;2.10;;;1.92;;
51048;SDS011;37084;55.228;36.450;2024-03-06T08:54:23;1.73;;;1.63;;
51048;SDS011;37084;55.228;36.450;2024-03-06T08:57:25;2.40;;;1.48;;
51048;SDS011;37084;55.228;36.450;2024-03-06T09:00:29;4.00;;;1.80;;
51048;SDS011;37084;55.228;36.450;2024-03-06T09:03:31;1.67;;;1.55;;
51048;SDS011;37084;55.228;36.450;2024-03-06T09:06:32;1.85;;;1.58;;
51048;SDS011;37084;55.228;36.450;2024-03-06T09:09:34;1.90;;;1.20;;
51048;SDS011;37084;55.228;36.450;2024-03-06T09:12:36;1.55;;;1.35;;
51048;SDS011;37084;55.228;36.450;2024-03-06T09:15:37;2.67;;;1.73;;
51048;SDS011;37084;55.228;36.450;2024-03-06T09:18:38;2.22;;;1.30;;
51048;SDS011;37084;55.228;36.450;2024-03-06T09:21:40;2.35;;;1.38;;
51048;SDS011;37084;55.228;36.450;2024-03-06T09:24:41;1.67;;;1.13;;
51048;SDS011;37084;55.228;36.450;2024-03-06T09:27:42;1.90;;;1.30;;
51048;SDS011;37084;55.228;36.450;2024-03-06T09:30:44;2.40;;;1.60;;
51048;SDS011;37084;55.228;36.450;2024-03-06T09:33:46;1.75;;;1.17;;
51048;SDS011;37084;55.228;36.450;2024-03-06T09:36:48;2.47;;;1.55;;
51048;SDS011;37084;55.228;36.450;2024-03-06T09:39:50;3.17;;;1.38;;
51048;SDS011;37084;55.228;36.450;2024-03-06T09:42:52;2.83;;;1.45;;
51048;SDS011;37084;55.228;36.450;2024-03-06T09:45:53;2.50;;;1.42;;
51048;SDS011;37084;55.228;36.450;2024-03-06T09:48:56;3.10;;;1.70;;
51048;SDS011;37084;55.228;36.450;2024-03-06T09:51:58;2.55;;;1.20;;
51048;SDS011;37084;55.228;36.450;2024-03-06T09:55:01;2.15;;;1.55;;
51048;SDS011;37084;55.228;36.450;2024-03-06T09:58:04;2.70;;;1.42;;
51048;SDS011;37084;55.228;36.450;2024-03-06T10:01:06;2.33;;;1.77;;
51048;SDS011;37084;55.228;36.450;2024-03-06T10:04:27;3.42;;;1.45;;
51048;SDS011;37084;55.228;36.450;2024-03-06T10:07:29;1.30;;;1.20;;
51048;SDS011;37084;55.228;36.450;2024-03-06T10:10:30;1.75;;;1.23;;
51048;SDS011;37084;55.228;36.450;2024-03-06T10:13:32;2.75;;;1.75;;
51048;SDS011;37084;55.228;36.450;2024-03-06T10:16:34;3.60;;;1.73;;
51048;SDS011;37084;55.228;36.450;2024-03-06T10:19:37;2.85;;;1.35;;
51048;SDS011;37084;55.228;36.450;2024-03-06T10:22:40;3.00;;;1.40;;
51048;SDS011;37084;55.228;36.450;2024-03-06T10:25:46;3.78;;;1.70;;
51048;SDS011;37084;55.228;36.450;2024-03-06T10:28:54;1.73;;;1.13;;
51048;SDS011;37084;55.228;36.450;2024-03-06T10:31:58;2.72;;;1.30;;
51048;SDS011;37084;55.228;36.450;2024-03-06T10:34:59;2.15;;;1.30;;
51048;SDS011;37084;55.228;36.450;2024-03-06T10:38:05;2.80;;;1.85;;
51048;SDS011;37084;55.228;36.450;2024-03-06T10:41:08;2.45;;;1.60;;
51048;SDS011;37084;55.228;36.450;2024-03-06T10:44:14;3.40;;;1.50;;
51048;SDS011;37084;55.228;36.450;2024-03-06T10:47:16;1.20;;;1.05;;
51048;SDS011;37084;55.228;36.450;2024-03-06T10:50:20;1.30;;;1.20;;
51048;SDS011;37084;55.228;36.450;2024-03-06T10:53:22;3.33;;;1.30;;
51048;SDS011;37084;55.228;36.450;2024-03-06T10:56:24;2.47;;;1.85;;
51048;SDS011;37084;55.228;36.450;2024-03-06T10:59:26;2.25;;;1.30;;
51048;SDS011;37084;55.228;36.450;2024-03-06T11:02:29;1.98;;;1.65;;
51048;SDS011;37084;55.228;36.450;2024-03-06T11:05:30;2.58;;;1.20;;
51048;SDS011;37084;55.228;36.450;2024-03-06T11:08:32;2.75;;;1.60;;
51048;SDS011;37084;55.228;36.450;2024-03-06T11:11:39;2.28;;;1.63;;
51048;SDS011;37084;55.228;36.450;2024-03-06T11:14:50;2.67;;;1.05;;
51048;SDS011;37084;55.228;36.450;2024-03-06T11:17:52;3.25;;;1.50;;
51048;SDS011;37084;55.228;36.450;2024-03-06T11:27:17;2.75;;;1.58;;
51048;SDS011;37084;55.228;36.450;2024-03-06T11:30:19;2.55;;;1.55;;
51048;SDS011;37084;55.228;36.450;2024-03-06T11:33:21;1.65;;;1.17;;
51048;SDS011;37084;55.228;36.450;2024-03-06T11:36:24;2.53;;;1.30;;
51048;SDS011;37084;55.228;36.450;2024-03-06T11:39:35;2.50;;;1.27;;
51048;SDS011;37084;55.228;36.450;2024-03-06T11:42:37;1.65;;;1.23;;
51048;SDS011;37084;55.228;36.450;2024-03-06T11:45:43;2.22;;;1.50;;
51048;SDS011;37084;55.228;36.450;2024-03-06T11:48:51;1.90;;;1.33;;
51048;SDS011;37084;55.228;36.450;2024-03-06T11:51:56;3.38;;;1.20;;
51048;SDS011;37084;55.228;36.450;2024-03-06T11:54:59;4.28;;;1.50;;
51048;SDS011;37084;55.228;36.450;2024-03-06T11:58:01;2.20;;;1.25;;
51048;SDS011;37084;55.228;36.450;2024-03-06T12:01:03;1.85;;;1.20;;
51048;SDS011;37084;55.228;36.450;2024-03-06T12:04:05;2.25;;;1.38;;
51048;SDS011;37084;55.228;36.450;2024-03-06T12:07:07;1.20;;;1.08;;
51048;SDS011;37084;55.228;36.450;2024-03-06T12:10:10;2.03;;;1.40;;
51048;SDS011;37084;55.228;36.450;2024-03-06T12:13:11;1.63;;;1.20;;
51048;SDS011;37084;55.228;36.450;2024-03-06T12:16:14;2.45;;;1.67;;
51048;SDS011;37084;55.228;36.450;2024-03-06T12:19:16;2.95;;;1.20;;
51048;SDS011;37084;55.228;36.450;2024-03-06T12:22:17;3.03;;;1.20;;
51048;SDS011;37084;55.228;36.450;2024-03-06T12:25:20;2.60;;;1.70;;
51048;SDS011;37084;55.228;36.450;2024-03-06T12:28:25;2.05;;;1.30;;
51048;SDS011;37084;55.228;36.450;2024-03-06T12:31:26;1.65;;;0.90;;
51048;SDS011;37084;55.228;36.450;2024-03-06T12:34:28;1.77;;;1.23;;
51048;SDS011;37084;55.228;36.450;2024-03-06T12:37:32;2.65;;;1.13;;
51048;SDS011;37084;55.228;36.450;2024-03-06T12:40:34;1.70;;;1.05;;
51048;SDS011;37084;55.228;36.450;2024-03-06T12:43:35;2.85;;;1.25;;
51048;SDS011;37084;55.228;36.450;2024-03-06T12:46:36;1.42;;;1.02;;
51048;SDS011;37084;55.228;36.450;2024-03-06T12:49:38;0.98;;;0.88;;
51048;SDS011;37084;55.228;36.450;2024-03-06T12:52:39;1.60;;;0.80;;
51048;SDS011;37084;55.228;36.450;2024-03-06T12:55:42;1.20;;;0.93;;
51048;SDS011;37084;55.228;36.450;2024-03-06T12:58:46;1.38;;;1.02;;
51048;SDS011;37084;55.228;36.450;2024-03-06T13:01:48;1.50;;;1.25;;
51048;SDS011;37084;55.228;36.450;2024-03-06T13:04:50;2.50;;;1.40;;
51048;SDS011;37084;55.228;36.450;2024-03-06T13:07:52;1.42;;;1.17;;
51048;SDS011;37084;55.228;36.450;2024-03-06T13:10:53;1.48;;;1.10;;
51048;SDS011;37084;55.228;36.450;2024-03-06T13:13:54;2.63;;;1.00;;
51048;SDS011;37084;55.228;36.450;2024-03-06T13:16:56;1.42;;;1.02;;
51048;SDS011;37084;55.228;36.450;2024-03-06T13:19:57;1.20;;;0.90;;
51048;SDS011;37084;55.228;36.450;2024-03-06T13:22:58;1.38;;;1.02;;
51048;SDS011;37084;55.228;36.450;2024-03-06T13:26:00;4.85;;;1.20;;
51048;SDS011;37084;55.228;36.450;2024-03-06T13:29:02;1.88;;;1.42;;
51048;SDS011;37084;55.228;36.450;2024-03-06T13:32:03;1.55;;;1.45;;
51048;SDS011;37084;55.228;36.450;2024-03-06T13:35:05;2.75;;;1.02;;
51048;SDS011;37084;55.228;36.450;2024-03-06T13:38:14;1.88;;;1.10;;
51048;SDS011;37084;55.228;36.450;2024-03-06T13:41:15;1.55;;;1.15;;
51048;SDS011;37084;55.228;36.450;2024-03-06T13:44:17;1.45;;;1.00;;
51048;SDS011;37084;55.228;36.450;2024-03-06T13:47:19;2.53;;;1.05;;
51048;SDS011;37084;55.228;36.450;2024-03-06T13:50:20;1.92;;;1.30;;
51048;SDS011;37084;55.228;36.450;2024-03-06T13:53:24;4.15;;;1.13;;
51048;SDS011;37084;55.228;36.450;2024-03-06T13:56:25;1.27;;;1.05;;
51048;SDS011;37084;55.228;36.450;2024-03-06T13:59:28;2.72;;;1.00;;
51048;SDS011;37084;55.228;36.450;2024-03-06T14:05:33;2.58;;;1.10;;
51048;SDS011;37084;55.228;36.450;2024-03-06T14:08:34;2.42;;;1.33;;
51048;SDS011;37084;55.228;36.450;2024-03-06T14:11:40;1.77;;;0.88;;
51048;SDS011;37084;55.228;36.450;2024-03-06T14:14:41;1.77;;;1.50;;
51048;SDS011;37084;55.228;36.450;2024-03-06T14:17:42;1.58;;;1.15;;
51048;SDS011;37084;55.228;36.450;2024-03-06T14:20:43;3.58;;;2.13;;
51048;SDS011;37084;55.228;36.450;2024-03-06T14:23:45;1.77;;;1.05;;
51048;SDS011;37084;55.228;36.450;2024-03-06T14:26:46;1.88;;;1.00;;
51048;SDS011;37084;55.228;36.450;2024-03-06T14:29:47;1.55;;;1.20;;
51048;SDS011;37084;55.228;36.450;2024-03-06T14:32:49;2.83;;;0.90;;
51048;SDS011;37084;55.228;36.450;2024-03-06T14:35:50;2.33;;;1.02;;
51048;SDS011;37084;55.228;36.450;2024-03-06T14:38:52;1.73;;;1.25;;
51048;SDS011;37084;55.228;36.450;2024-03-06T14:41:53;2.05;;;1.17;;
51048;SDS011;37084;55.228;36.450;2024-03-06T14:44:55;1.38;;;1.13;;
51048;SDS011;37084;55.228;36.450;2024-03-06T14:47:56;1.80;;;1.30;;
51048;SDS011;37084;55.228;36.450;2024-03-06T14:50:58;2.75;;;1.73;;
51048;SDS011;37084;55.228;36.450;2024-03-06T14:53:59;2.42;;;1.27;;
51048;SDS011;37084;55.228;36.450;2024-03-06T14:57:01;2.22;;;1.08;;
51048;SDS011;37084;55.228;36.450;2024-03-06T15:00:02;1.77;;;1.38;;
51048;SDS011;37084;55.228;36.450;2024-03-06T15:03:07;1.85;;;1.00;;
51048;SDS011;37084;55.228;36.450;2024-03-06T15:06:10;1.35;;;1.15;;
51048;SDS011;37084;55.228;36.450;2024-03-06T15:09:12;1.85;;;1.33;;
51048;SDS011;37084;55.228;36.450;2024-03-06T15:12:16;2.63;;;1.25;;
51048;SDS011;37084;55.228;36.450;2024-03-06T15:15:17;1.80;;;1.13;;
51048;SDS011;37084;55.228;36.450;2024-03-06T15:18:19;3.03;;;0.77;;
51048;SDS011;37084;55.228;36.450;2024-03-06T15:21:21;2.33;;;0.98;;
51048;SDS011;37084;55.228;36.450;2024-03-06T15:24:22;2.33;;;1.50;;
51048;SDS011;37084;55.228;36.450;2024-03-06T15:27:23;1.75;;;0.88;;
51048;SDS011;37084;55.228;36.450;2024-03-06T15:30:25;2.67;;;0.98;;
51048;SDS011;37084;55.228;36.450;2024-03-06T15:33:27;1.13;;;1.02;;
51048;SDS011;37084;55.228;36.450;2024-03-06T15:36:29;2.08;;;0.73;;
51048;SDS011;37084;55.228;36.450;2024-03-06T15:39:31;1.60;;;1.02;;
51048;SDS011;37084;55.228;36.450;2024-03-06T15:42:33;2.22;;;1.35;;
51048;SDS011;37084;55.228;36.450;2024-03-06T15:45:35;1.45;;;1.27;;
51048;SDS011;37084;55.228;36.450;2024-03-06T15:48:36;1.45;;;1.10;;
51048;SDS011;37084;55.228;36.450;2024-03-06T15:51:37;1.55;;;1.10;;
51048;SDS011;37084;55.228;36.450;2024-03-06T15:54:39;2.28;;;1.00;;
51048;SDS011;37084;55.228;36.450;2024-03-06T15:57:41;3.65;;;1.15;;
51048;SDS011;37084;55.228;36.450;2024-03-06T16:00:44;3.03;;;1.27;;
51048;SDS011;37084;55.228;36.450;2024-03-06T16:03:46;1.23;;;1.13;;
51048;SDS011;37084;55.228;36.450;2024-03-06T16:06:47;1.92;;;1.20;;
51048;SDS011;37084;55.228;36.450;2024-03-06T16:09:48;2.15;;;1.33;;
51048;SDS011;37084;55.228;36.450;2024-03-06T16:12:53;1.20;;;1.02;;
51048;SDS011;37084;55.228;36.450;2024-03-06T16:15:54;2.25;;;1.00;;
51048;SDS011;37084;55.228;36.450;2024-03-06T16:18:56;1.75;;;1.17;;
51048;SDS011;37084;55.228;36.450;2024-03-06T16:21:57;2.83;;;1.60;;
51048;SDS011;37084;55.228;36.450;2024-03-06T16:24:58;1.13;;;1.05;;
51048;SDS011;37084;55.228;36.450;2024-03-06T16:28:00;3.97;;;1.35;;
51048;SDS011;37084;55.228;36.450;2024-03-06T16:31:01;2.30;;;0.93;;
51048;SDS011;37084;55.228;36.450;2024-03-06T16:34:03;1.38;;;0.95;;
51048;SDS011;37084;55.228;36.450;2024-03-06T16:37:04;1.45;;;0.90;;
51048;SDS011;37084;55.228;36.450;2024-03-06T16:40:06;2.45;;;0.80;;
51048;SDS011;37084;55.228;36.450;2024-03-06T16:43:07;1.45;;;0.82;;
51048;SDS011;37084;55.228;36.450;2024-03-06T16:46:09;2.40;;;1.38;;
51048;SDS011;37084;55.228;36.450;2024-03-06T16:49:11;2.17;;;1.33;;
51048;SDS011;37084;55.228;36.450;2024-03-06T16:52:14;2.00;;;1.13;;
51048;SDS011;37084;55.228;36.450;2024-03-06T16:55:15;1.67;;;1.45;;
51048;SDS011;37084;55.228;36.450;2024-03-06T16:58:16;2.88;;;1.70;;
51048;SDS011;37084;55.228;36.450;2024-03-06T17:01:18;1.52;;;1.23;;
51048;SDS011;37084;55.228;36.450;2024-03-06T17:04:19;1.27;;;1.17;;
51048;SDS011;37084;55.228;36.450;2024-03-06T17:07:20;2.35;;;1.25;;
51048;SDS011;37084;55.228;36.450;2024-03-06T17:10:22;2.33;;;1.40;;
51048;SDS011;37084;55.228;36.450;2024-03-06T17:13:24;3.20;;;1.30;;
51048;SDS011;37084;55.228;36.450;2024-03-06T17:16:25;1.50;;;1.40;;
51048;SDS011;37084;55.228;36.450;2024-03-06T17:19:27;2.95;;;1.33;;
51048;SDS011;37084;55.228;36.450;2024-03-06T17:22:28;2.08;;;1.10;;
51048;SDS011;37084;55.228;36.450;2024-03-06T17:25:30;3.58;;;1.77;;
51048;SDS011;37084;55.228;36.450;2024-03-06T17:28:31;5.10;;;3.25;;
51048;SDS011;37084;55.228;36.450;2024-03-06T17:31:33;9.23;;;3.65;;
51048;SDS011;37084;55.228;36.450;2024-03-06T17:34:36;6.03;;;3.45;;
51048;SDS011;37084;55.228;36.450;2024-03-06T17:37:37;6.00;;;2.90;;
51048;SDS011;37084;55.228;36.450;2024-03-06T17:40:39;8.25;;;3.33;;
51048;SDS011;37084;55.228;36.450;2024-03-06T17:43:44;4.45;;;2.10;;
51048;SDS011;37084;55.228;36.450;2024-03-06T17:46:45;9.73;;;2.58;;
51048;SDS011;37084;55.228;36.450;2024-03-06T17:49:47;3.25;;;2.45;;
51048;SDS011;37084;55.228;36.450;2024-03-06T17:52:48;4.63;;;2.00;;
51048;SDS011;37084;55.228;36.450;2024-03-06T17:55:49;2.90;;;1.60;;
51048;SDS011;37084;55.228;36.450;2024-03-06T17:58:51;3.88;;;2.03;;
51048;SDS011;37084;55.228;36.450;2024-03-06T18:01:52;1.77;;;1.60;;
51048;SDS011;37084;55.228;36.450;2024-03-06T18:04:54;5.10;;;2.10;;
51048;SDS011;37084;55.228;36.450;2024-03-06T18:07:56;4.35;;;2.40;;
51048;SDS011;37084;55.228;36.450;2024-03-06T18:10:57;5.88;;;2.05;;